Time;durP1;ratioP1;P1;durP2;ratioP2;P2;SDS_P1;SDS_P2;PMS_P1;PMS_P2;Temp;Humidity;BMP_temperature;BMP_pressure;BME280_temperature;BME280_humidity;BME280_pressure;Samples;Min_cycle;Max_cycle;Signal;HPM_P1;HPM_P2
2022/10/08 00:01:17;;;;;;;9.30;9.00;;;12.50;99.90;;;;;;5116682;28;20229;-75
2022/10/08 00:03:48;;;;;;;9.23;8.93;;;12.40;99.90;;;;;;5117407;28;20250;-76
2022/10/08 00:06:18;;;;;;;9.07;8.77;;;12.30;99.90;;;;;;5116483;28;20239;-76
2022/10/08 00:08:50;;;;;;;9.10;8.80;;;12.30;99.90;;;;;;5116401;27;20327;-76
2022/10/08 00:11:20;;;;;;;9.20;8.90;;;12.30;99.90;;;;;;5117090;28;20351;-76
2022/10/08 00:13:49;;;;;;;9.23;8.93;;;12.30;99.90;;;;;;5116754;28;20229;-76
2022/10/08 00:16:20;;;;;;;9.00;8.70;;;12.20;99.90;;;;;;5115922;28;20249;-76
2022/10/08 00:18:51;;;;;;;9.20;8.90;;;12.20;99.90;;;;;;5116817;28;20379;-76
2022/10/08 00:21:22;;;;;;;9.20;8.90;;;12.20;99.90;;;;;;5116607;28;20240;-78
2022/10/08 00:23:51;;;;;;;9.20;8.90;;;12.20;99.90;;;;;;5116387;28;20351;-76
2022/10/08 00:26:24;;;;;;;9.30;9.00;;;12.10;99.90;;;;;;5115760;28;20286;-76
2022/10/08 00:28:54;;;;;;;9.30;9.00;;;12.10;99.90;;;;;;5116414;28;20233;-76
2022/10/08 00:31:25;;;;;;;9.40;9.10;;;12.10;99.90;;;;;;5116540;28;20243;-76
2022/10/08 00:33:56;;;;;;;9.17;8.87;;;12.10;99.90;;;;;;5116645;28;20303;-76
2022/10/08 00:36:26;;;;;;;9.30;9.00;;;12.10;99.90;;;;;;5116052;28;20233;-76
2022/10/08 00:38:56;;;;;;;9.40;9.10;;;12.10;99.90;;;;;;5116498;28;20245;-76
2022/10/08 00:41:28;;;;;;;9.20;8.90;;;12.10;99.90;;;;;;5116684;28;20240;-76
2022/10/08 00:43:58;;;;;;;9.20;8.90;;;12.10;99.90;;;;;;5100919;28;20230;-75
2022/10/08 00:46:32;;;;;;;9.30;9.00;;;12.10;99.90;;;;;;5099363;28;20239;-76
2022/10/08 00:49:05;;;;;;;9.10;8.80;;;12.10;99.90;;;;;;5107818;27;20370;-76
2022/10/08 00:51:34;;;;;;;9.33;9.03;;;12.10;99.90;;;;;;5105808;28;20694;-76
2022/10/08 00:54:03;;;;;;;9.40;9.10;;;12.10;99.90;;;;;;5099551;28;20245;-76
2022/10/08 00:56:34;;;;;;;9.33;9.03;;;12.10;99.90;;;;;;5099826;28;20225;-76
2022/10/08 00:59:03;;;;;;;9.30;9.00;;;12.10;99.90;;;;;;5117014;27;20228;-76
2022/10/08 01:01:30;;;;;;;9.27;8.97;;;12.10;99.90;;;;;;5120050;28;20225;-76
2022/10/08 01:04:04;;;;;;;9.30;9.00;;;12.10;99.90;;;;;;5120733;28;20233;-76
2022/10/08 01:06:43;;;;;;;9.20;8.90;;;12.00;99.90;;;;;;5113784;28;20236;-75
2022/10/08 01:09:16;;;;;;;9.30;9.00;;;12.10;99.90;;;;;;5124464;27;20304;-76
2022/10/08 01:11:49;;;;;;;9.50;9.20;;;12.10;99.90;;;;;;5121057;28;20243;-76
2022/10/08 01:14:40;;;;;;;9.40;9.10;;;12.00;99.90;;;;;;5120693;28;20239;-76
2022/10/08 01:17:18;;;;;;;9.30;9.00;;;12.00;99.90;;;;;;5119881;28;20216;-76
2022/10/08 01:20:15;;;;;;;9.63;9.33;;;12.00;99.90;;;;;;5103960;27;20230;-76
2022/10/08 01:23:15;;;;;;;9.50;9.20;;;12.00;99.90;;;;;;5079543;28;20230;-76
2022/10/08 01:25:55;;;;;;;9.60;9.30;;;12.00;99.90;;;;;;5078552;28;20230;-76
2022/10/08 01:28:31;;;;;;;9.40;9.10;;;12.00;99.90;;;;;;5079261;28;20367;-76
2022/10/08 01:31:06;;;;;;;9.37;9.07;;;12.00;99.90;;;;;;5106357;28;20225;-76
2022/10/08 01:33:39;;;;;;;9.30;9.00;;;12.00;99.90;;;;;;5119729;28;20317;-76
2022/10/08 01:36:10;;;;;;;9.10;8.80;;;12.00;99.90;;;;;;5118938;28;20228;-76
2022/10/08 01:38:44;;;;;;;9.17;8.87;;;12.00;99.90;;;;;;5119624;28;20290;-76
2022/10/08 01:41:15;;;;;;;9.13;8.83;;;12.00;99.90;;;;;;5119143;28;20281;-75
2022/10/08 01:43:53;;;;;;;9.30;9.00;;;12.00;99.90;;;;;;5119621;28;20315;-76
2022/10/08 01:46:25;;;;;;;9.20;8.90;;;12.00;99.90;;;;;;5119179;28;20235;-76
2022/10/08 01:48:57;;;;;;;9.33;9.03;;;12.00;99.90;;;;;;5119441;27;20300;-76
2022/10/08 01:51:31;;;;;;;9.20;8.90;;;12.00;99.90;;;;;;5120150;28;20251;-76
2022/10/08 01:54:02;;;;;;;9.30;9.00;;;12.00;99.90;;;;;;5121011;28;20232;-76
2022/10/08 01:56:32;;;;;;;9.13;8.83;;;12.00;99.90;;;;;;5119021;28;20228;-76
2022/10/08 01:59:07;;;;;;;9.30;9.00;;;12.00;99.90;;;;;;5125050;28;20237;-76
2022/10/08 02:01:43;;;;;;;9.40;9.10;;;12.00;99.90;;;;;;5133264;27;20272;-75
2022/10/08 02:06:58;;;;;;;9.33;9.03;;;12.00;99.90;;;;;;5141534;28;20193;-75
2022/10/08 02:09:28;;;;;;;9.50;9.20;;;12.00;99.90;;;;;;5140935;27;20235;-75
2022/10/08 02:11:56;;;;;;;9.47;9.17;;;12.10;99.90;;;;;;5141590;27;20243;-75
2022/10/08 02:14:27;;;;;;;9.57;9.27;;;12.10;99.90;;;;;;5140532;27;20228;-74
2022/10/08 02:17:18;;;;;;;9.60;9.30;;;12.10;99.90;;;;;;5141434;28;20197;-75
2022/10/08 02:19:55;;;;;;;9.57;9.27;;;12.00;99.90;;;;;;5125555;28;20217;-75
2022/10/08 02:22:28;;;;;;;9.40;9.10;;;12.10;99.90;;;;;;5140795;27;20213;-76
2022/10/08 02:25:01;;;;;;;9.60;9.30;;;12.10;99.90;;;;;;5142284;27;20221;-76
2022/10/08 02:27:40;;;;;;;9.40;9.10;;;12.10;99.90;;;;;;5142018;27;20209;-76
2022/10/08 02:30:11;;;;;;;9.47;9.17;;;12.10;99.90;;;;;;5138685;27;20276;-75
2022/10/08 02:32:49;;;;;;;9.20;8.90;;;12.20;99.90;;;;;;5139286;28;20223;-75
2022/10/08 02:35:24;;;;;;;9.40;9.10;;;12.20;99.90;;;;;;5138455;28;20243;-78
2022/10/08 02:37:58;;;;;;;9.47;9.17;;;12.20;99.90;;;;;;5138498;28;20212;-75
2022/10/08 02:40:27;;;;;;;9.00;8.70;;;12.30;99.90;;;;;;5138884;28;20228;-77
2022/10/08 02:43:01;;;;;;;9.30;9.00;;;12.30;99.90;;;;;;5134038;28;20368;-76
2022/10/08 02:45:33;;;;;;;9.30;9.00;;;12.30;99.90;;;;;;5131283;28;20235;-74
2022/10/08 02:48:05;;;;;;;9.40;9.10;;;12.30;99.90;;;;;;5132207;28;20259;-76
2022/10/08 02:50:36;;;;;;;9.43;9.13;;;12.30;99.90;;;;;;5131088;27;20247;-75
2022/10/08 02:53:04;;;;;;;9.50;9.20;;;12.30;99.90;;;;;;5128811;28;20237;-76
2022/10/08 02:55:42;;;;;;;9.60;9.30;;;12.20;99.90;;;;;;5131875;28;20297;-75
2022/10/08 02:58:12;;;;;;;9.50;9.20;;;12.20;99.90;;;;;;5130569;28;20319;-76
2022/10/08 03:00:49;;;;;;;9.27;8.97;;;12.20;99.90;;;;;;5129023;27;20301;-75
2022/10/08 03:03:22;;;;;;;9.70;9.40;;;12.10;99.90;;;;;;5117172;28;20243;-75
2022/10/08 03:05:51;;;;;;;9.60;9.30;;;12.10;99.90;;;;;;5125059;28;20240;-75
2022/10/08 03:08:20;;;;;;;9.47;9.17;;;12.10;99.90;;;;;;5112819;28;20281;-76
2022/10/08 03:10:49;;;;;;;9.50;9.20;;;12.10;99.90;;;;;;5112445;28;20240;-76
2022/10/08 03:13:17;;;;;;;9.30;9.00;;;12.10;99.90;;;;;;5110069;28;20240;-75
2022/10/08 03:15:50;;;;;;;9.30;9.00;;;12.00;99.90;;;;;;5117661;28;20232;-76
2022/10/08 03:18:18;;;;;;;9.40;9.10;;;12.10;99.90;;;;;;5120247;28;20230;-75
2022/10/08 03:20:50;;;;;;;9.50;9.20;;;12.10;99.90;;;;;;5132453;28;20225;-75
2022/10/08 03:23:19;;;;;;;9.40;9.10;;;12.10;99.90;;;;;;5131544;28;20223;-76
2022/10/08 03:25:49;;;;;;;9.40;9.10;;;12.10;99.90;;;;;;5131855;28;20232;-76
2022/10/08 03:28:17;;;;;;;9.50;9.20;;;12.10;99.90;;;;;;5126370;28;20223;-76
2022/10/08 03:30:46;;;;;;;9.23;8.93;;;12.10;99.90;;;;;;5119959;28;20288;-76
2022/10/08 03:33:13;;;;;;;9.50;9.20;;;12.00;99.90;;;;;;5117967;28;20232;-76
2022/10/08 03:35:45;;;;;;;9.60;9.30;;;12.00;99.90;;;;;;5118385;28;20228;-76
2022/10/08 03:38:14;;;;;;;9.43;9.13;;;12.00;99.90;;;;;;5125928;28;20240;-76
2022/10/08 03:40:41;;;;;;;9.50;9.20;;;12.00;99.90;;;;;;5123006;27;20232;-76
2022/10/08 03:43:09;;;;;;;9.50;9.20;;;12.00;99.90;;;;;;5118842;28;20225;-76
2022/10/08 03:45:36;;;;;;;9.40;9.10;;;12.10;99.90;;;;;;5112121;28;20237;-76
2022/10/08 03:48:05;;;;;;;9.40;9.10;;;12.00;99.90;;;;;;5106669;28;20285;-77
2022/10/08 03:50:33;;;;;;;9.30;9.00;;;12.00;99.90;;;;;;5098073;28;20233;-76
2022/10/08 03:53:00;;;;;;;9.47;9.17;;;12.00;99.90;;;;;;5096875;28;20383;-77
2022/10/08 03:55:28;;;;;;;9.50;9.20;;;12.00;99.90;;;;;;5096772;28;20241;-77
2022/10/08 03:57:55;;;;;;;9.33;9.03;;;12.00;99.90;;;;;;5097392;28;20259;-77
2022/10/08 04:00:23;;;;;;;9.60;9.30;;;12.00;99.90;;;;;;5097091;28;20309;-77
2022/10/08 04:02:51;;;;;;;9.60;9.30;;;12.10;99.90;;;;;;5097452;28;20229;-76
2022/10/08 04:05:19;;;;;;;9.50;9.20;;;12.10;99.90;;;;;;5096773;28;20230;-76
2022/10/08 04:07:47;;;;;;;9.40;9.10;;;12.10;99.90;;;;;;5096992;28;20320;-77
2022/10/08 04:10:14;;;;;;;9.50;9.20;;;12.10;99.90;;;;;;5096383;28;20271;-76
2022/10/08 04:12:42;;;;;;;9.60;9.30;;;12.00;99.90;;;;;;5096882;28;20251;-77
2022/10/08 04:15:10;;;;;;;9.60;9.30;;;12.00;99.90;;;;;;5096911;28;20229;-76
2022/10/08 04:17:38;;;;;;;9.60;9.30;;;11.90;99.90;;;;;;5097266;28;20240;-76
2022/10/08 04:20:06;;;;;;;9.70;9.40;;;11.90;99.90;;;;;;5098136;28;20779;-77
2022/10/08 04:22:35;;;;;;;9.80;9.50;;;11.90;99.90;;;;;;5102671;28;20228;-76
2022/10/08 04:25:02;;;;;;;9.60;9.30;;;11.90;99.90;;;;;;5104386;28;20225;-76
2022/10/08 04:27:30;;;;;;;9.60;9.30;;;11.90;99.90;;;;;;5101313;28;20229;-77
2022/10/08 04:29:57;;;;;;;9.40;9.10;;;12.00;99.90;;;;;;5100787;28;20243;-77
2022/10/08 04:32:25;;;;;;;9.30;9.00;;;12.00;99.90;;;;;;5100640;28;20251;-76
2022/10/08 04:34:52;;;;;;;9.47;9.17;;;12.00;99.90;;;;;;5099724;28;20237;-77
2022/10/08 04:37:21;;;;;;;9.60;9.30;;;12.00;99.90;;;;;;5100767;28;20229;-76
2022/10/08 04:39:50;;;;;;;9.40;9.10;;;12.00;99.90;;;;;;5107234;28;20228;-76
2022/10/08 04:42:17;;;;;;;9.30;9.00;;;12.10;99.90;;;;;;5112060;28;20311;-77
2022/10/08 04:44:45;;;;;;;9.20;8.90;;;12.10;99.90;;;;;;5120050;28;20548;-77
2022/10/08 04:47:12;;;;;;;9.40;9.10;;;12.10;99.90;;;;;;5120462;28;20228;-78
2022/10/08 04:49:39;;;;;;;9.10;8.80;;;12.10;99.90;;;;;;5120369;27;20233;-76
2022/10/08 04:52:07;;;;;;;9.40;9.10;;;12.10;99.90;;;;;;5120213;28;20232;-76
2022/10/08 04:54:35;;;;;;;9.37;9.07;;;12.10;99.90;;;;;;5119876;28;20235;-76
2022/10/08 04:57:04;;;;;;;9.30;9.00;;;12.10;99.90;;;;;;5101720;28;20231;-76
2022/10/08 04:59:31;;;;;;;9.37;9.07;;;12.20;99.90;;;;;;5120153;27;20320;-75
2022/10/08 05:01:59;;;;;;;9.50;9.20;;;12.20;99.90;;;;;;5120157;28;20224;-76
2022/10/08 05:04:26;;;;;;;9.27;8.97;;;12.20;99.90;;;;;;5120308;28;20235;-76
2022/10/08 05:06:54;;;;;;;9.37;9.07;;;12.20;99.90;;;;;;5120118;28;20229;-76
2022/10/08 05:09:21;;;;;;;9.50;9.20;;;12.20;99.90;;;;;;5120155;27;20228;-76
2022/10/08 05:11:50;;;;;;;9.40;9.10;;;12.20;99.90;;;;;;5119991;28;20229;-76
2022/10/08 05:14:19;;;;;;;9.40;9.10;;;12.20;99.90;;;;;;5119652;28;20237;-77
2022/10/08 05:16:48;;;;;;;9.50;9.20;;;12.20;99.90;;;;;;5119943;28;20911;-79
2022/10/08 05:19:16;;;;;;;9.97;9.67;;;12.20;99.90;;;;;;5121666;27;20320;-78
2022/10/08 05:21:43;;;;;;;9.50;9.20;;;12.20;99.90;;;;;;5121482;28;20234;-78
2022/10/08 05:24:12;;;;;;;9.53;9.23;;;12.20;99.90;;;;;;5122500;28;20238;-79
2022/10/08 05:26:41;;;;;;;9.90;9.60;;;12.30;99.90;;;;;;5122016;28;20232;-78
2022/10/08 05:29:10;;;;;;;9.73;9.43;;;12.30;99.90;;;;;;5122620;27;20324;-80
2022/10/08 05:31:39;;;;;;;10.00;9.70;;;12.30;99.90;;;;;;5122267;28;20235;-79
2022/10/08 05:34:07;;;;;;;10.20;9.90;;;12.30;99.90;;;;;;5121642;28;20275;-78
2022/10/08 05:36:38;;;;;;;9.90;9.60;;;12.40;99.90;;;;;;5121000;28;20239;-80
2022/10/08 05:39:06;;;;;;;9.87;9.57;;;12.30;99.90;;;;;;5122102;27;20233;-79
2022/10/08 05:41:37;;;;;;;9.60;9.30;;;12.30;99.90;;;;;;5121602;28;20236;-79
2022/10/08 05:44:06;;;;;;;9.90;9.60;;;12.30;99.90;;;;;;5121358;28;20241;-78
2022/10/08 05:46:35;;;;;;;9.30;9.00;;;12.30;99.90;;;;;;5120233;28;20232;-80
2022/10/08 05:49:07;;;;;;;9.27;8.97;;;12.30;99.90;;;;;;5120733;28;20239;-79
2022/10/08 05:51:35;;;;;;;9.37;9.07;;;12.30;99.90;;;;;;5121253;28;20719;-79
2022/10/08 05:54:02;;;;;;;9.30;9.00;;;12.40;99.90;;;;;;5120301;28;20243;-79
2022/10/08 05:56:30;;;;;;;9.50;9.20;;;12.40;99.90;;;;;;5120006;28;20235;-78
2022/10/08 05:58:59;;;;;;;9.40;9.10;;;12.50;99.90;;;;;;5120463;27;20294;-80
2022/10/08 06:01:30;;;;;;;9.27;8.97;;;12.50;99.90;;;;;;5121281;28;20217;-78
2022/10/08 06:04:00;;;;;;;9.40;9.10;;;12.50;99.90;;;;;;5120633;28;20274;-79
2022/10/08 06:06:31;;;;;;;9.40;9.10;;;12.50;99.90;;;;;;5119978;28;20225;-81
2022/10/08 06:09:01;;;;;;;9.50;9.20;;;12.60;99.90;;;;;;5121638;28;20263;-80
2022/10/08 06:11:31;;;;;;;9.37;9.07;;;12.60;99.90;;;;;;5121542;28;20225;-80
2022/10/08 06:14:00;;;;;;;9.40;9.10;;;12.70;99.90;;;;;;5122278;28;20237;-80
2022/10/08 06:16:29;;;;;;;9.47;9.17;;;12.70;99.90;;;;;;5120930;28;20732;-80
2022/10/08 06:18:57;;;;;;;9.60;9.30;;;12.80;99.90;;;;;;5121308;27;20232;-81
2022/10/08 06:21:28;;;;;;;9.80;9.50;;;12.90;99.90;;;;;;5121471;28;20701;-80
2022/10/08 06:23:59;;;;;;;9.40;9.10;;;12.90;99.90;;;;;;5122307;28;20316;-80
2022/10/08 06:26:31;;;;;;;9.63;9.33;;;12.90;99.90;;;;;;5120764;28;20239;-80
2022/10/08 06:28:58;;;;;;;9.40;9.10;;;13.00;99.90;;;;;;5121315;28;20243;-80
2022/10/08 06:31:26;;;;;;;9.30;9.00;;;13.00;99.90;;;;;;5121089;28;20229;-80
2022/10/08 06:33:57;;;;;;;9.53;9.23;;;13.00;99.90;;;;;;5120867;28;20232;-81
2022/10/08 06:36:27;;;;;;;9.50;9.20;;;13.00;99.90;;;;;;5120713;28;20242;-83
2022/10/08 06:38:58;;;;;;;9.57;9.27;;;13.00;99.90;;;;;;5121737;27;20237;-82
2022/10/08 06:41:29;;;;;;;9.80;9.50;;;13.00;99.90;;;;;;5121713;28;20239;-82
2022/10/08 06:44:01;;;;;;;9.63;9.33;;;13.00;99.90;;;;;;5122377;28;20229;-82
2022/10/08 06:46:31;;;;;;;9.50;9.20;;;13.00;99.90;;;;;;5121729;28;20279;-83
2022/10/08 06:49:02;;;;;;;9.53;9.23;;;13.00;99.90;;;;;;5121949;27;20243;-84
2022/10/08 06:51:32;;;;;;;9.80;9.50;;;13.10;99.90;;;;;;5122263;28;20239;-84
2022/10/08 06:54:05;;;;;;;9.67;9.37;;;13.10;99.90;;;;;;5122305;28;20228;-84
2022/10/08 06:56:34;;;;;;;9.80;9.50;;;13.20;99.90;;;;;;5113306;28;20224;-83
2022/10/08 06:59:02;;;;;;;9.67;9.37;;;13.20;99.90;;;;;;5113044;28;20257;-84
2022/10/08 07:01:29;;;;;;;9.30;9.00;;;13.30;99.90;;;;;;5112291;28;20220;-84
2022/10/08 07:03:59;;;;;;;9.43;9.13;;;13.50;99.90;;;;;;5104572;28;20221;-84
2022/10/08 07:06:28;;;;;;;9.10;8.80;;;13.50;99.90;;;;;;5101903;28;20256;-84
2022/10/08 07:08:58;;;;;;;9.43;9.13;;;13.60;99.90;;;;;;5100458;28;20230;-82
2022/10/08 07:11:31;;;;;;;9.40;9.10;;;13.70;99.90;;;;;;5101019;28;20206;-83
2022/10/08 07:13:58;;;;;;;9.50;9.20;;;13.70;99.90;;;;;;5100389;28;20237;-83
2022/10/08 07:16:28;;;;;;;9.47;9.17;;;13.80;99.90;;;;;;5100183;28;20229;-83
2022/10/08 07:18:57;;;;;;;9.47;9.17;;;13.90;99.90;;;;;;5090560;28;20245;-83
2022/10/08 07:21:25;;;;;;;9.40;9.10;;;13.90;99.90;;;;;;5110659;28;20213;-83
2022/10/08 07:23:54;;;;;;;9.07;8.77;;;14.00;99.90;;;;;;5110102;28;20225;-83
2022/10/08 07:26:24;;;;;;;9.23;8.93;;;14.00;99.90;;;;;;5113284;28;20235;-81
2022/10/08 07:29:01;;;;;;;9.20;8.90;;;14.10;99.90;;;;;;5121845;28;20288;-83
2022/10/08 07:31:32;;;;;;;9.30;9.00;;;14.20;99.90;;;;;;5122030;28;20212;-84
2022/10/08 07:34:01;;;;;;;9.50;9.20;;;14.20;99.90;;;;;;5119835;28;20233;-83
2022/10/08 07:36:30;;;;;;;9.23;8.93;;;14.30;99.90;;;;;;5110708;28;20332;-84
2022/10/08 07:38:59;;;;;;;9.20;8.90;;;14.40;99.90;;;;;;5103632;28;20241;-84
2022/10/08 07:41:29;;;;;;;9.15;8.85;;;14.50;99.90;;;;;;5100635;28;20286;-83
2022/10/08 07:44:00;;;;;;;9.18;8.88;;;14.50;99.90;;;;;;5100531;28;20230;-83
2022/10/08 07:46:37;;;;;;;8.97;8.73;;;14.60;99.90;;;;;;5100203;28;20229;-84
2022/10/08 07:49:06;;;;;;;9.13;8.82;;;14.80;99.90;;;;;;5099145;28;20240;-83
2022/10/08 07:51:35;;;;;;;9.05;8.75;;;14.90;99.90;;;;;;5098924;28;20229;-83
2022/10/08 07:54:06;;;;;;;9.00;8.70;;;15.10;99.90;;;;;;5097676;28;20233;-84
2022/10/08 07:56:34;;;;;;;8.80;8.60;;;15.20;99.90;;;;;;5105757;28;20335;-83
2022/10/08 07:59:14;;;;;;;8.90;8.60;;;15.20;99.90;;;;;;5098752;28;20234;-83
2022/10/08 08:01:50;;;;;;;9.02;8.73;;;15.30;99.90;;;;;;5100520;28;20275;-83
2022/10/08 08:04:20;;;;;;;8.77;8.57;;;15.40;99.90;;;;;;5111481;28;20320;-84
2022/10/08 08:06:51;;;;;;;9.07;8.77;;;15.40;99.90;;;;;;5121240;28;20316;-82
2022/10/08 08:09:19;;;;;;;9.10;8.80;;;15.50;99.90;;;;;;5120343;27;20295;-83
2022/10/08 08:11:49;;;;;;;9.30;9.00;;;15.60;99.90;;;;;;5121168;28;20284;-83
2022/10/08 08:14:21;;;;;;;9.25;8.95;;;15.70;99.90;;;;;;5123398;28;20232;-85
2022/10/08 08:17:05;;;;;;;9.32;9.02;;;15.60;99.90;;;;;;5113955;28;20283;-85
2022/10/08 08:19:35;;;;;;;8.60;8.40;;;15.60;99.90;;;;;;5113924;27;20731;-83
2022/10/08 08:22:04;;;;;;;8.90;8.60;;;15.60;99.90;;;;;;5121166;28;20217;-83
2022/10/08 08:24:32;;;;;;;8.70;8.50;;;15.60;99.90;;;;;;5102289;28;20342;-83
2022/10/08 08:27:02;;;;;;;9.32;9.02;;;15.70;99.90;;;;;;5079253;28;20225;-82
2022/10/08 08:29:32;;;;;;;9.13;8.82;;;15.80;99.90;;;;;;5079385;28;20313;-83
2022/10/08 08:32:04;;;;;;;9.30;9.00;;;15.90;99.90;;;;;;5080029;28;20266;-83
2022/10/08 08:34:32;;;;;;;9.07;8.77;;;16.00;99.90;;;;;;5081744;28;20297;-81
2022/10/08 08:37:00;;;;;;;8.93;8.63;;;16.20;99.90;;;;;;5081078;28;20249;-84
2022/10/08 08:39:32;;;;;;;9.35;9.05;;;16.30;99.90;;;;;;5079034;28;20230;-83
2022/10/08 08:42:26;;;;;;;9.50;9.20;;;16.40;99.90;;;;;;5079624;28;20226;-83
2022/10/08 08:45:08;;;;;;;9.45;9.15;;;16.40;99.90;;;;;;5103569;28;20234;-83
2022/10/08 08:47:44;;;;;;;9.48;9.18;;;16.40;99.90;;;;;;5102880;28;20233;-87
2022/10/08 08:53:12;;;;;;;9.20;8.90;;;16.30;99.90;;;;;;5098311;28;20222;-87
2022/10/08 08:55:42;;;;;;;9.50;9.20;;;16.30;99.90;;;;;;5099812;28;20221;-87
2022/10/08 08:58:32;;;;;;;8.90;8.70;;;16.40;99.90;;;;;;5100292;28;20217;-87
2022/10/08 09:01:22;;;;;;;9.25;8.95;;;16.50;99.90;;;;;;5091936;28;20238;-87
2022/10/08 09:03:53;;;;;;;9.20;8.90;;;16.50;99.90;;;;;;5080098;28;20222;-86
2022/10/08 09:09:26;;;;;;;9.13;8.82;;;16.70;99.90;;;;;;5078150;28;20264;-84
2022/10/08 09:11:56;;;;;;;9.00;8.75;;;16.90;99.90;;;;;;5101975;28;20214;-85
2022/10/08 09:14:45;;;;;;;9.18;8.88;;;17.00;99.90;;;;;;5103974;28;20218;-88
2022/10/08 09:17:21;;;;;;;9.18;8.88;;;17.10;99.90;;;;;;5103032;28;20225;-87
2022/10/08 09:19:52;;;;;;;9.30;9.00;;;17.30;99.90;;;;;;5107782;28;20296;-88
2022/10/08 09:22:28;;;;;;;9.38;9.07;;;17.60;99.90;;;;;;5112417;28;20222;-86
2022/10/08 09:27:53;;;;;;;9.38;9.07;;;18.10;99.90;;;;;;5098994;28;20221;-87
2022/10/08 09:30:43;;;;;;;9.30;9.00;;;18.10;99.90;;;;;;5103349;28;20224;-88
2022/10/08 09:33:31;;;;;;;9.10;8.80;;;18.30;99.90;;;;;;5097927;28;20221;-87
2022/10/08 09:35:58;;;;;;;9.60;9.30;;;18.30;99.90;;;;;;5101614;28;20748;-87
2022/10/08 09:38:28;;;;;;;9.52;9.23;;;18.30;99.90;;;;;;5103027;28;20226;-87
2022/10/08 09:41:05;;;;;;;9.35;9.05;;;18.40;99.90;;;;;;5107073;28;20291;-86
2022/10/08 09:43:34;;;;;;;9.15;8.85;;;18.30;99.90;;;;;;5103349;28;20285;-85
2022/10/08 09:46:29;;;;;;;9.63;9.32;;;18.10;99.90;;;;;;5103092;28;20215;-89
2022/10/08 09:49:28;;;;;;;9.73;9.43;;;17.90;99.90;;;;;;5103520;28;20237;-87
2022/10/08 09:55:00;;;;;;;10.00;9.70;;;17.70;99.90;;;;;;5104064;28;20225;-87
2022/10/08 10:00:34;;;;;;;10.00;9.70;;;17.70;99.90;;;;;;5116264;28;20242;-88
2022/10/08 10:03:04;;;;;;;10.20;9.90;;;17.80;99.90;;;;;;5122184;27;20217;-89
2022/10/08 10:05:43;;;;;;;10.40;10.10;;;18.20;99.90;;;;;;5118328;28;20255;-89
2022/10/08 10:08:47;;;;;;;10.15;9.85;;;18.50;99.90;;;;;;5118721;28;20222;-83
2022/10/08 10:11:24;;;;;;;9.90;9.60;;;18.60;99.90;;;;;;5118782;28;20205;-89
2022/10/08 10:13:53;;;;;;;10.10;9.80;;;18.10;99.90;;;;;;5117773;28;20237;-88
2022/10/08 10:19:16;;;;;;;9.98;9.68;;;17.60;99.90;;;;;;5117198;28;20229;-83
2022/10/08 10:21:56;;;;;;;9.95;9.65;;;17.60;99.90;;;;;;5118535;28;20233;-85
2022/10/08 10:24:49;;;;;;;9.75;9.45;;;17.70;99.90;;;;;;5116741;28;20226;-77
2022/10/08 10:27:27;;;;;;;9.65;9.35;;;17.80;99.90;;;;;;5110622;28;20213;-85
2022/10/08 10:30:05;;;;;;;9.30;9.00;;;18.00;99.90;;;;;;5107444;28;20226;-78
2022/10/08 10:32:43;;;;;;;9.65;9.35;;;18.10;99.90;;;;;;5110676;28;20233;-82
2022/10/08 10:35:20;;;;;;;9.70;9.40;;;18.20;99.90;;;;;;5109889;28;20225;-79
2022/10/08 10:37:55;;;;;;;9.95;9.65;;;18.50;99.90;;;;;;5106323;28;20225;-82
2022/10/08 10:40:38;;;;;;;9.90;9.60;;;18.70;99.90;;;;;;5102005;28;20221;-83
2022/10/08 10:43:33;;;;;;;10.00;9.70;;;18.30;99.90;;;;;;5102648;28;20221;-82
2022/10/08 10:49:18;;;;;;;9.88;9.57;;;18.10;99.90;;;;;;5105488;27;20321;-78
2022/10/08 10:51:57;;;;;;;10.00;9.70;;;18.20;99.90;;;;;;5110503;28;20231;-80
2022/10/08 10:54:58;;;;;;;10.02;9.73;;;18.70;99.90;;;;;;5113328;28;20248;-84
2022/10/08 10:57:45;;;;;;;10.18;9.88;;;19.20;99.90;;;;;;5122770;28;20239;-78
2022/10/08 11:00:22;;;;;;;10.43;10.13;;;19.50;99.90;;;;;;5116302;27;20225;-84
2022/10/08 11:03:01;;;;;;;10.57;10.27;;;19.50;99.90;;;;;;5108272;28;20209;-84
2022/10/08 11:05:34;;;;;;;10.00;9.70;;;19.50;99.90;;;;;;5101401;28;20233;-82
2022/10/08 11:08:29;;;;;;;10.38;10.07;;;19.60;99.90;;;;;;5102291;28;20333;-82
2022/10/08 11:11:19;;;;;;;10.13;9.82;;;19.50;99.90;;;;;;5101294;28;20259;-82
2022/10/08 11:14:02;;;;;;;10.18;9.88;;;19.50;99.90;;;;;;5102587;28;20245;-82
2022/10/08 11:16:47;;;;;;;10.05;9.75;;;19.90;99.90;;;;;;5100936;28;20221;-85
2022/10/08 11:19:39;;;;;;;10.18;9.88;;;20.30;99.90;;;;;;5121676;27;20232;-83
2022/10/08 11:22:22;;;;;;;10.25;9.95;;;20.50;99.90;;;;;;5095968;27;20234;-85
2022/10/08 11:25:24;;;;;;;10.20;9.90;;;20.50;99.90;;;;;;5106026;28;20225;-86
2022/10/08 11:28:14;;;;;;;10.02;9.73;;;20.50;99.90;;;;;;5101652;28;20249;-85
2022/10/08 11:30:59;;;;;;;10.45;10.15;;;20.80;99.90;;;;;;5083107;28;20299;-86
2022/10/08 11:33:28;;;;;;;10.20;9.90;;;21.00;99.90;;;;;;5080284;28;20286;-84
2022/10/08 11:36:17;;;;;;;10.80;10.50;;;21.30;99.90;;;;;;5080102;28;20238;-84
2022/10/08 11:38:54;;;;;;;10.50;10.20;;;21.80;99.90;;;;;;5084654;28;20242;-83
2022/10/08 11:41:30;;;;;;;10.50;10.20;;;21.90;99.90;;;;;;5085746;28;20257;-83
2022/10/08 11:44:10;;;;;;;10.52;10.23;;;21.90;99.90;;;;;;5083977;28;20232;-85
2022/10/08 11:46:39;;;;;;;10.60;10.30;;;22.10;99.90;;;;;;5083728;28;20233;-85
2022/10/08 11:49:53;;;;;;;10.70;10.40;;;22.40;99.90;;;;;;5081823;28;20230;-84
2022/10/08 11:52:50;;;;;;;10.70;10.40;;;22.20;99.90;;;;;;5080091;28;20308;-88
2022/10/08 11:55:35;;;;;;;10.68;10.38;;;21.00;99.90;;;;;;5102029;28;20326;-88
2022/10/08 11:58:07;;;;;;;10.38;10.07;;;20.50;99.90;;;;;;5109265;28;20287;-88
2022/10/08 12:00:54;;;;;;;10.57;10.27;;;20.10;99.90;;;;;;5107618;27;20241;-88
2022/10/08 12:03:30;;;;;;;10.52;10.23;;;19.90;99.90;;;;;;5101518;28;20236;-89
2022/10/08 12:06:01;;;;;;;10.40;10.10;;;19.60;99.90;;;;;;5099856;28;20256;-86
2022/10/08 12:08:57;;;;;;;10.20;9.90;;;19.20;99.90;;;;;;5101445;28;20240;-88
2022/10/08 12:11:52;;;;;;;10.45;10.15;;;19.00;99.90;;;;;;5101446;28;20253;-86
2022/10/08 12:14:47;;;;;;;10.50;10.20;;;19.00;99.90;;;;;;5102246;28;20228;-85
2022/10/08 12:17:25;;;;;;;10.63;10.32;;;19.20;99.90;;;;;;5103035;28;20236;-85
2022/10/08 12:20:22;;;;;;;10.60;10.30;;;19.60;99.90;;;;;;5105696;28;20243;-85
2022/10/08 12:23:08;;;;;;;10.60;10.30;;;19.90;99.90;;;;;;5103153;28;20525;-83
2022/10/08 12:25:48;;;;;;;10.50;10.20;;;20.00;99.90;;;;;;5103773;28;20236;-83
2022/10/08 12:28:49;;;;;;;10.65;10.35;;;20.40;99.90;;;;;;5110847;28;20277;-84
2022/10/08 12:31:32;;;;;;;10.70;10.40;;;21.10;99.90;;;;;;5115904;28;20222;-81
2022/10/08 12:34:10;;;;;;;10.43;10.13;;;21.30;99.90;;;;;;5110075;27;20329;-80
2022/10/08 12:36:48;;;;;;;10.70;10.40;;;21.50;99.90;;;;;;5094408;28;20293;-82
2022/10/08 12:39:32;;;;;;;10.43;10.13;;;21.40;99.90;;;;;;5099754;28;20214;-83
2022/10/08 12:42:13;;;;;;;10.15;9.85;;;21.20;99.90;;;;;;5117383;28;20228;-81
2022/10/08 12:45:07;;;;;;;10.30;10.00;;;21.00;99.90;;;;;;5119878;28;20229;-82
2022/10/08 12:47:47;;;;;;;10.35;10.05;;;21.10;99.90;;;;;;5118224;28;20252;-82
2022/10/08 12:50:36;;;;;;;10.40;10.10;;;21.40;99.90;;;;;;5126515;28;20297;-83
2022/10/08 12:53:05;;;;;;;10.07;9.77;;;21.40;99.90;;;;;;5114091;28;21023;-83
2022/10/08 12:55:42;;;;;;;10.45;10.15;;;20.80;99.90;;;;;;5120899;27;20325;-84
2022/10/08 12:58:18;;;;;;;10.20;9.90;;;20.80;99.90;;;;;;5138357;27;20252;-81
2022/10/08 13:00:51;;;;;;;10.40;10.10;;;20.60;99.90;;;;;;5115393;27;20294;-80
2022/10/08 13:03:19;;;;;;;10.23;9.93;;;20.80;99.90;;;;;;5099631;28;20267;-84
2022/10/08 13:05:52;;;;;;;10.30;10.00;;;20.90;99.90;;;;;;5093462;28;20230;-81
2022/10/08 13:08:37;;;;;;;10.40;10.10;;;21.00;99.90;;;;;;5082795;28;20238;-82
2022/10/08 13:11:16;;;;;;;10.15;9.85;;;21.30;99.90;;;;;;5103513;28;20222;-82
2022/10/08 13:13:54;;;;;;;10.30;10.00;;;21.20;99.90;;;;;;5110215;28;20249;-83
2022/10/08 13:16:30;;;;;;;10.45;10.15;;;21.20;99.90;;;;;;5103054;28;20233;-85
2022/10/08 13:18:59;;;;;;;10.27;9.98;;;21.20;99.90;;;;;;5104532;28;20225;-82
2022/10/08 13:21:56;;;;;;;10.50;10.20;;;21.50;99.90;;;;;;5112982;28;20281;-83
2022/10/08 13:24:42;;;;;;;10.35;10.05;;;21.70;99.90;;;;;;5102741;28;20713;-82
2022/10/08 13:27:30;;;;;;;10.27;9.98;;;21.80;99.90;;;;;;5093902;28;20222;-83
2022/10/08 13:29:58;;;;;;;10.30;10.00;;;22.00;99.90;;;;;;5084027;28;20244;-83
2022/10/08 13:32:29;;;;;;;10.30;10.00;;;22.40;99.90;;;;;;5102072;28;20260;-84
2022/10/08 13:34:59;;;;;;;10.30;10.00;;;22.10;99.90;;;;;;5102238;28;20240;-84
2022/10/08 13:37:36;;;;;;;10.20;9.90;;;22.20;99.90;;;;;;5102689;28;20263;-84
2022/10/08 13:40:23;;;;;;;10.27;9.98;;;22.60;99.90;;;;;;5102221;28;20244;-83
2022/10/08 13:42:54;;;;;;;10.40;10.10;;;22.70;99.90;;;;;;5081045;28;20234;-82